Nearby METAR Reports

 

KSJC - San Jose, California, USA
Distance from station: NE 9mi, 14km
Updated: Wed, 30-Sep-2020 12:53am PDT
Partly cloudy
Partly cloudy
 Wind from NNW
Wind: NNW 7 mph , 11 km/h
Temperature: 63°F , 17°C
Dew Point: 59°F , 15°C
Humidity: 88%
Barometer: 30.07 inHg , 1018.3 hPa
Clouds: Partly cloudy
Visibility: 8 miles , 13 km
Cloud details: Partly cloudy 800 ft
2020/09/30 07:53 KSJC 300753Z AUTO 34006KT 8SM SCT008 17/15 A3007 RMK AO2 SLP181 T01720150 402890172
KNUQ - Moffett Nas/Mtn, California, USA
Distance from station: N 9mi, 14km
Updated: Wed, 30-Sep-2020 12:55am PDT
Overcast
Overcast
 Wind from W
Wind: W 6 mph , 9 km/h
Temperature: 63°F , 17°C
Dew Point: 59°F , 15°C
Humidity: 88%
Barometer: 30.07 inHg , 1018.3 hPa
Clouds: Overcast
Visibility: 10 miles , 16 km
Cloud details: Overcast 800 ft
2020/09/30 07:55 KNUQ 300755Z AUTO 28005KT 10SM OVC008 17/15 A3007 RMK AO2
 
KPAO - Palo Alto, California, USA
Distance from station: NNW 14mi, 23km
Updated: Tue, 29-Sep-2020 6:47pm PDT
NOT Current

 
Visibility: 2 miles , 3 km
2020/09/30 01:47 KPAO 300147Z 3209KT 10SM SKC 18/16 A3001 RMK LAST
KRHV - San Jose/Reid, California, USA
Distance from station: ENE 12mi, 19km
Updated: Tue, 29-Sep-2020 9:47pm PDT
NOT Current
Clear
Clear
 Wind from NW
Wind: NW 6 mph , 9 km/h
Temperature: 66°F , 19°C
Dew Point: 61°F , 16°C
Humidity: 83%
Barometer: 30.04 inHg , 1017.3 hPa
Clouds: Clear
Visibility: 10 miles , 16 km
2020/09/30 04:47 KRHV 300447Z 31005KT 10SM SKC 19/16 A3004 RMK LAST
 
KOAK - Oakland, California, USA
Distance from station: NNW 31mi, 50km
Updated: Wed, 30-Sep-2020 12:53am PDT
Overcast
Overcast
 Wind from NNW
Wind: NNW 3 mph , 6 km/h
Temperature: 63°F , 17°C
Dew Point: 57°F , 14°C
Humidity: 83%
Barometer: 30.08 inHg , 1018.6 hPa
Clouds: Overcast
Visibility: 7 miles , 11 km
Cloud details: Overcast 500 ft
2020/09/30 07:53 KOAK 300753Z 33003KT 7SM OVC005 17/14 A3008 RMK AO2 SLP184 T01670144 402390156
KSQL - San Carlos Airpo, California, USA
Distance from station: NW 21mi, 34km
Updated: Wed, 30-Sep-2020 12:55am PDT
Clear
Clear
 Wind from NNW
Wind: NNW 3 mph , 6 km/h
Temperature: 59°F , 15°C
Dew Point: 59°F , 15°C
Humidity: 100%
Barometer: 30.08 inHg , 1018.6 hPa
Clouds: Clear
Visibility: 10 miles , 16 km
2020/09/30 07:55 KSQL 300755Z AUTO 33003KT 10SM CLR 15/15 A3008 RMK AO2
 
KSFO - San Francisco, California, USA
Distance from station: NW 30mi, 49km
Updated: Wed, 30-Sep-2020 12:56am PDT
Overcast
Overcast
 Wind from WNW
Wind: WNW 12 mph , 19 km/h
Temperature: 57°F , 14°C
Dew Point: 57°F , 14°C
Humidity: 100%
Barometer: 30.07 inHg , 1018.3 hPa
Clouds: Overcast
Visibility: 8 miles , 13 km
Cloud details: Few Clouds 100 ft
Mostly cloudy 300 ft
Overcast 500 ft
2020/09/30 07:56 KSFO 300756Z 29010KT 8SM FEW001 BKN003 OVC005 14/14 A3007 RMK AO2 SLP182 T01440139 403500139
KE16 - San Martin, California, USA
Distance from station: ESE 27mi, 43km
Updated: Tue, 29-Sep-2020 11:40pm PDT
NOT Current

 Wind from E
Wind: E 3 mph , 6 km/h
Temperature: 61°F , 16°C
Dew Point: 55°F , 13°C
Humidity: 83%
Barometer: 30.08 inHg , 1018.6 hPa
Visibility: 10 miles , 16 km
2020/09/30 06:40 KE16 300640Z AUTO 10003KT 10SM 16/13 A3008 RMK AO2
 
KWVI - Watsonville, California, USA
Distance from station: SSE 27mi, 44km
Updated: Wed, 30-Sep-2020 1:02am PDT
Mist, Overcast
Mist, Overcast
 Wind from calm
Wind: Calm
Temperature: 57°F , 14°C
Dew Point: 57°F , 14°C
Humidity: 100%
Barometer: 30.06 inHg , 1017.9 hPa
Summary: Mist
Clouds: Overcast
Visibility: 1 mile , 2 km
Cloud details: Overcast 200 ft
2020/09/30 08:02 KWVI 300802Z AUTO 00000KT 1SM BR VV002 14/14 A3006 RMK AO2 T01440144
KHAF - Half Moon Bay, California, USA
Distance from station: WNW 31mi, 50km
Updated: Wed, 30-Sep-2020 12:55am PDT
Mist, Overcast
Mist, Overcast
 Wind from NNW
Wind: NNW 6 mph , 9 km/h
Temperature: 57°F , 14°C
Dew Point: 57°F , 14°C
Humidity: 100%
Barometer: 30.08 inHg , 1018.6 hPa
Summary: Mist
Clouds: Overcast
Visibility: 2 1/2 miles , 4 km
Cloud details: Overcast 300 ft
2020/09/30 07:55 KHAF 300755Z AUTO 33005KT 2 1/2SM BR OVC003 14/14 A3008 RMK AO2
 
KHWD - Hayward, California, USA
Distance from station: N 28mi, 44km
Updated: Wed, 30-Sep-2020 12:54am PDT
Haze, Mostly cloudy
Haze, Mostly cloudy
 Wind from NW
Wind: NW 6 mph , 9 km/h
Temperature: 63°F , 17°C
Dew Point: 57°F , 14°C
Humidity: 83%
Barometer: 30.07 inHg , 1018.3 hPa
Summary: Haze
Clouds: Mostly cloudy
Visibility: 4 miles , 6 km
Cloud details: Mostly cloudy 400 ft
2020/09/30 07:54 KHWD 300754Z 32005KT 4SM HZ BKN004 17/14 A3007 RMK AO2 CIG 003V006 SLP191 T01670139 402720156
KLVK - Livermore, California, USA
Distance from station: NNE 31mi, 51km
Updated: Wed, 30-Sep-2020 12:53am PDT
Smoke, Clear
Smoke, Clear
 Wind from WNW
Wind: WNW 5 mph , 7 km/h
Temperature: 64°F , 18°C
Dew Point: 55°F , 13°C
Humidity: 73%
Barometer: 30.05 inHg , 1017.6 hPa
Summary: Smoke
Clouds: Clear
Visibility: 10 miles , 16 km
2020/09/30 07:53 KLVK 300753Z AUTO 29004KT 10SM FU CLR 18/13 A3005 RMK AO2 SLP171 T01780133 403780167